Time;durP1;ratioP1;P1;durP2;ratioP2;P2;SDS_P1;SDS_P2;PMS_P1;PMS_P2;Temp;Humidity;BMP_temperature;BMP_pressure;BME280_temperature;BME280_humidity;BME280_pressure;Samples;Min_cycle;Max_cycle;Signal;HPM_P1;HPM_P2
2022/10/29 00:01:21;;;;;;;10.35;4.70;;;13.50;99.90;;;;;;5044909;28;20052;-82
2022/10/29 00:03:48;;;;;;;19.98;5.30;;;13.50;99.90;;;;;;5042645;28;20720;-79
2022/10/29 00:06:14;;;;;;;9.43;4.60;;;13.50;99.90;;;;;;5048545;28;20048;-81
2022/10/29 00:08:40;;;;;;;12.13;5.43;;;13.50;99.90;;;;;;5051849;28;20058;-83
2022/10/29 00:11:13;;;;;;;14.98;6.60;;;13.50;99.90;;;;;;5053763;28;20057;-82
2022/10/29 00:13:40;;;;;;;9.85;4.28;;;13.50;99.90;;;;;;5044823;28;20055;-82
2022/10/29 00:16:16;;;;;;;18.65;5.80;;;13.40;99.90;;;;;;5049710;28;20049;-83
2022/10/29 00:18:43;;;;;;;10.52;4.15;;;13.40;99.90;;;;;;5045291;28;20073;-82
2022/10/29 00:21:17;;;;;;;15.98;4.70;;;13.50;99.90;;;;;;5045388;28;20041;-79
2022/10/29 00:23:43;;;;;;;12.05;5.45;;;13.40;99.90;;;;;;5051212;28;20052;-79
2022/10/29 00:26:09;;;;;;;12.48;4.40;;;13.40;99.90;;;;;;5049713;28;20052;-79
2022/10/29 00:28:35;;;;;;;15.23;5.32;;;13.40;99.90;;;;;;5052667;28;20040;-82
2022/10/29 00:31:27;;;;;;;12.82;5.93;;;13.30;99.90;;;;;;5052923;28;20578;-81
2022/10/29 00:33:54;;;;;;;16.10;5.43;;;13.30;99.90;;;;;;5048134;28;20052;-82
2022/10/29 00:36:25;;;;;;;9.98;4.30;;;13.30;99.90;;;;;;5047093;28;20048;-81
2022/10/29 00:38:51;;;;;;;10.50;4.43;;;13.30;99.90;;;;;;5046582;28;20064;-82
2022/10/29 00:41:20;;;;;;;13.25;5.05;;;13.30;99.90;;;;;;5060096;28;20181;-82
2022/10/29 00:43:49;;;;;;;8.50;4.82;;;13.20;99.90;;;;;;5040313;28;20057;-80
2022/10/29 00:46:29;;;;;;;12.20;4.82;;;13.20;99.90;;;;;;5047980;28;20228;-83
2022/10/29 00:48:56;;;;;;;7.88;3.92;;;13.10;99.90;;;;;;5051114;28;20044;-82
2022/10/29 00:51:22;;;;;;;15.52;5.40;;;13.10;99.90;;;;;;5054376;28;20081;-80
2022/10/29 00:53:54;;;;;;;11.95;4.65;;;13.10;99.90;;;;;;5050625;28;20152;-82
2022/10/29 00:56:22;;;;;;;10.82;4.63;;;13.00;99.90;;;;;;5050001;28;20126;-82
2022/10/29 00:58:48;;;;;;;8.43;4.28;;;13.00;99.90;;;;;;5052225;28;20056;-81
2022/10/29 01:01:14;;;;;;;8.93;4.50;;;13.00;99.90;;;;;;5046120;28;20049;-81
2022/10/29 01:03:40;;;;;;;8.20;3.78;;;13.00;99.90;;;;;;5053867;28;20052;-83
2022/10/29 01:06:07;;;;;;;7.43;4.13;;;13.00;99.90;;;;;;5048891;28;20056;-81
2022/10/29 01:08:33;;;;;;;12.65;5.35;;;13.00;99.90;;;;;;5052142;28;20041;-82
2022/10/29 01:11:13;;;;;;;7.65;3.70;;;12.90;99.90;;;;;;5054280;28;20067;-80
2022/10/29 01:14:12;;;;;;;9.23;3.85;;;12.70;99.90;;;;;;5054299;28;20049;-81
2022/10/29 01:16:56;;;;;;;10.15;4.22;;;12.80;99.90;;;;;;5052710;28;20048;-82
2022/10/29 01:19:41;;;;;;;7.53;4.22;;;12.80;99.90;;;;;;5050541;28;20051;-82
2022/10/29 01:22:26;;;;;;;9.82;4.65;;;12.70;99.90;;;;;;5047490;28;20124;-82
2022/10/29 01:25:17;;;;;;;12.73;4.65;;;12.70;99.90;;;;;;5045515;28;20083;-82
2022/10/29 01:28:28;;;;;;;8.80;4.25;;;12.70;99.90;;;;;;5053938;28;20044;-82
2022/10/29 01:31:08;;;;;;;7.85;3.83;;;12.70;99.90;;;;;;5049650;28;20072;-81
2022/10/29 01:33:53;;;;;;;8.68;4.15;;;12.60;99.90;;;;;;5049823;28;20080;-82
2022/10/29 01:36:35;;;;;;;7.10;4.15;;;12.60;99.90;;;;;;5052438;28;20048;-82
2022/10/29 01:39:09;;;;;;;10.18;3.83;;;12.60;99.90;;;;;;5043660;28;20124;-81
2022/10/29 01:41:52;;;;;;;8.57;4.18;;;12.60;99.90;;;;;;5051810;28;20766;-83
2022/10/29 01:44:42;;;;;;;8.30;4.82;;;12.50;99.90;;;;;;5054482;28;20060;-83
2022/10/29 01:47:19;;;;;;;12.70;4.28;;;12.50;99.90;;;;;;5043799;28;20165;-82
2022/10/29 01:49:52;;;;;;;8.63;4.85;;;12.50;99.90;;;;;;5044703;28;20075;-83
2022/10/29 01:52:20;;;;;;;9.25;4.63;;;12.50;99.90;;;;;;5050461;28;20057;-82
2022/10/29 01:54:47;;;;;;;9.40;4.88;;;12.50;99.90;;;;;;5039810;28;20045;-82
2022/10/29 01:57:36;;;;;;;29.85;7.10;;;12.50;99.90;;;;;;5041668;28;20073;-81
2022/10/29 02:00:07;;;;;;;28.98;9.63;;;12.40;99.90;;;;;;5051735;28;20778;-82
2022/10/29 02:03:14;;;;;;;8.43;4.47;;;12.50;99.90;;;;;;5046409;28;20276;-81
2022/10/29 02:05:52;;;;;;;10.80;4.55;;;12.50;99.90;;;;;;5052394;28;20048;-80
2022/10/29 02:08:40;;;;;;;15.73;5.03;;;12.50;99.90;;;;;;5051539;28;20153;-82
2022/10/29 02:11:24;;;;;;;29.50;5.18;;;12.40;99.90;;;;;;5025086;28;20810;-82
2022/10/29 02:13:57;;;;;;;25.38;8.30;;;12.40;99.90;;;;;;5042856;28;20076;-82
2022/10/29 02:16:24;;;;;;;9.20;4.72;;;12.40;99.90;;;;;;5042408;28;20495;-82
2022/10/29 02:18:51;;;;;;;9.30;4.82;;;12.40;99.90;;;;;;5047369;28;20044;-83
2022/10/29 02:21:18;;;;;;;9.93;4.45;;;12.40;99.90;;;;;;5050122;28;20083;-82
2022/10/29 02:23:44;;;;;;;10.90;6.10;;;12.40;99.90;;;;;;5051068;28;20044;-79
2022/10/29 02:26:11;;;;;;;11.43;5.00;;;12.30;99.90;;;;;;5045795;28;20071;-82
2022/10/29 02:28:36;;;;;;;25.23;7.95;;;12.30;99.90;;;;;;5053034;28;20213;-81
2022/10/29 02:31:03;;;;;;;9.88;4.68;;;12.30;99.90;;;;;;5050858;28;20044;-81
2022/10/29 02:33:28;;;;;;;12.43;5.10;;;12.30;99.90;;;;;;5048995;28;20248;-79
2022/10/29 02:35:54;;;;;;;5.28;4.10;;;12.30;99.90;;;;;;5048443;28;20801;-82
2022/10/29 02:38:19;;;;;;;12.57;4.68;;;12.30;99.90;;;;;;5048908;28;20149;-82
2022/10/29 02:40:45;;;;;;;26.10;5.30;;;12.30;99.90;;;;;;5046750;28;20055;-81
2022/10/29 02:43:11;;;;;;;9.70;4.07;;;12.20;99.90;;;;;;5055371;28;20087;-82
2022/10/29 02:45:36;;;;;;;22.00;6.03;;;12.30;99.90;;;;;;5045481;28;20045;-82
2022/10/29 02:48:02;;;;;;;8.48;3.45;;;12.20;99.90;;;;;;5038713;28;20049;-82
2022/10/29 02:50:28;;;;;;;39.20;5.75;;;12.20;99.90;;;;;;5043222;28;20061;-81
2022/10/29 02:52:54;;;;;;;19.83;5.47;;;12.20;99.90;;;;;;5045493;28;20056;-81
2022/10/29 02:55:19;;;;;;;28.83;5.88;;;12.20;99.90;;;;;;5049392;28;20055;-82
2022/10/29 02:57:45;;;;;;;9.77;3.92;;;12.10;99.90;;;;;;5042428;28;20045;-82
2022/10/29 03:00:12;;;;;;;25.63;6.07;;;12.10;99.90;;;;;;5042154;28;20735;-82
2022/10/29 03:02:38;;;;;;;22.85;4.95;;;12.10;99.90;;;;;;5046215;28;20049;-82
2022/10/29 03:05:04;;;;;;;13.98;4.43;;;12.10;99.90;;;;;;5038406;28;20052;-79
2022/10/29 03:07:35;;;;;;;19.58;5.38;;;12.10;99.90;;;;;;5056274;28;20540;-79
2022/10/29 03:10:05;;;;;;;22.50;6.90;;;12.20;99.90;;;;;;5042179;28;20032;-82
2022/10/29 03:12:31;;;;;;;44.30;8.48;;;12.20;99.90;;;;;;5047562;28;20791;-82
2022/10/29 03:14:57;;;;;;;16.60;4.95;;;12.30;99.90;;;;;;5036797;28;20059;-82
2022/10/29 03:17:22;;;;;;;9.00;5.05;;;12.20;99.90;;;;;;5039882;28;20076;-82
2022/10/29 03:19:48;;;;;;;8.77;4.55;;;12.30;99.90;;;;;;5054371;28;20040;-81
2022/10/29 03:22:14;;;;;;;11.50;5.10;;;12.30;99.90;;;;;;5042658;28;20597;-80
2022/10/29 03:24:40;;;;;;;8.68;4.25;;;12.30;99.90;;;;;;5048120;28;20041;-82
2022/10/29 03:27:05;;;;;;;12.10;6.53;;;12.40;99.90;;;;;;5046607;28;20134;-82
2022/10/29 03:29:31;;;;;;;17.48;7.55;;;12.40;99.90;;;;;;5051690;28;20103;-82
2022/10/29 03:31:57;;;;;;;16.80;5.20;;;12.40;99.90;;;;;;5047939;28;20056;-81
2022/10/29 03:34:23;;;;;;;28.50;6.10;;;12.50;99.90;;;;;;5056513;28;20119;-82
2022/10/29 03:36:49;;;;;;;11.65;4.82;;;12.50;99.90;;;;;;5057191;28;20094;-81
2022/10/29 03:39:15;;;;;;;16.85;5.57;;;12.60;99.90;;;;;;5041607;28;20093;-81
2022/10/29 03:41:40;;;;;;;14.00;5.95;;;12.70;99.90;;;;;;5054465;28;20139;-81
2022/10/29 03:44:06;;;;;;;9.02;4.05;;;12.70;99.90;;;;;;5041532;28;20067;-81
2022/10/29 03:46:32;;;;;;;24.77;6.82;;;12.70;99.90;;;;;;5053446;28;20052;-81
2022/10/29 03:48:58;;;;;;;11.75;5.63;;;12.80;99.90;;;;;;5050250;28;20492;-82
2022/10/29 03:51:24;;;;;;;24.13;6.75;;;12.80;99.90;;;;;;5043925;28;20064;-80
2022/10/29 03:53:50;;;;;;;14.55;4.38;;;12.90;99.90;;;;;;5036211;28;20044;-80
2022/10/29 03:56:15;;;;;;;18.85;6.32;;;12.90;99.90;;;;;;5045894;28;20055;-81
2022/10/29 03:58:41;;;;;;;22.80;5.30;;;13.00;99.90;;;;;;5048508;28;20068;-80
2022/10/29 04:01:08;;;;;;;15.38;5.68;;;13.00;99.90;;;;;;5049609;28;20060;-81
2022/10/29 04:03:37;;;;;;;11.65;5.28;;;12.90;99.90;;;;;;5053459;28;20052;-82
2022/10/29 04:06:14;;;;;;;45.10;8.30;;;13.00;99.90;;;;;;5033316;28;20060;-81
2022/10/29 04:08:41;;;;;;;18.67;6.22;;;13.00;99.90;;;;;;5046621;28;20045;-81
2022/10/29 04:11:11;;;;;;;22.50;6.20;;;13.10;99.90;;;;;;5051895;28;20055;-79
2022/10/29 04:13:37;;;;;;;28.58;7.75;;;13.10;99.90;;;;;;5055329;28;20063;-81
2022/10/29 04:16:03;;;;;;;32.00;8.52;;;13.10;99.90;;;;;;5052232;28;20056;-81
2022/10/29 04:18:29;;;;;;;23.25;8.10;;;13.10;99.90;;;;;;5050309;28;20501;-79
2022/10/29 04:20:59;;;;;;;19.23;5.85;;;13.10;99.90;;;;;;5048547;28;20524;-82
2022/10/29 04:23:25;;;;;;;24.23;6.82;;;13.10;99.90;;;;;;5053235;28;20048;-82
2022/10/29 04:25:55;;;;;;;37.55;9.50;;;13.20;99.90;;;;;;5029953;28;20941;-82
2022/10/29 04:28:21;;;;;;;20.92;7.53;;;13.10;99.90;;;;;;5045841;28;20082;-82
2022/10/29 04:30:46;;;;;;;29.25;6.28;;;13.10;99.90;;;;;;5050484;28;20056;-79
2022/10/29 04:33:12;;;;;;;38.45;7.65;;;13.10;99.90;;;;;;5049326;28;20499;-79
2022/10/29 04:35:38;;;;;;;20.92;6.97;;;13.10;99.90;;;;;;5052546;28;20048;-81
2022/10/29 04:38:08;;;;;;;35.22;10.35;;;13.20;99.90;;;;;;5052325;28;20053;-82
2022/10/29 04:40:33;;;;;;;45.88;9.32;;;13.20;99.90;;;;;;5052679;28;20050;-82
2022/10/29 04:42:59;;;;;;;16.85;8.38;;;13.10;99.90;;;;;;5051153;28;20633;-80
2022/10/29 04:45:25;;;;;;;23.48;7.53;;;13.20;99.90;;;;;;5049748;28;20045;-81
2022/10/29 04:47:59;;;;;;;33.88;8.90;;;13.20;99.90;;;;;;5056896;28;20790;-81
2022/10/29 04:50:25;;;;;;;30.73;7.78;;;13.20;99.90;;;;;;5051880;28;20924;-81
2022/10/29 04:52:51;;;;;;;25.67;8.68;;;13.20;99.90;;;;;;5050711;28;20058;-81
2022/10/29 04:55:16;;;;;;;47.45;9.82;;;13.20;99.90;;;;;;5047979;28;20056;-80
2022/10/29 04:57:47;;;;;;;60.30;10.48;;;13.30;99.90;;;;;;5036125;28;20504;-78
2022/10/29 05:00:13;;;;;;;48.58;9.27;;;13.30;99.90;;;;;;5051874;28;20045;-80
2022/10/29 05:02:39;;;;;;;39.65;9.07;;;13.30;99.90;;;;;;5050875;28;20045;-80
2022/10/29 05:05:05;;;;;;;45.40;8.65;;;13.30;99.90;;;;;;5032693;28;20060;-81
2022/10/29 05:07:30;;;;;;;31.23;8.60;;;13.30;99.90;;;;;;5048768;28;20429;-81
2022/10/29 05:09:56;;;;;;;30.10;7.90;;;13.30;99.90;;;;;;5051725;28;20050;-81
2022/10/29 05:12:22;;;;;;;29.33;8.15;;;13.30;99.90;;;;;;5050616;28;20052;-82
2022/10/29 05:14:47;;;;;;;34.60;9.32;;;13.30;99.90;;;;;;5050740;28;20055;-81
2022/10/29 05:17:13;;;;;;;18.13;7.13;;;13.30;99.90;;;;;;5053170;28;20137;-80
2022/10/29 05:19:39;;;;;;;36.30;11.25;;;13.30;99.90;;;;;;5053019;28;20044;-80
2022/10/29 05:22:04;;;;;;;45.47;9.93;;;13.30;99.90;;;;;;5050479;28;20287;-81
2022/10/29 05:24:30;;;;;;;39.97;9.90;;;13.30;99.90;;;;;;5050263;28;20048;-81
2022/10/29 05:26:55;;;;;;;29.63;7.80;;;13.40;99.90;;;;;;5049305;28;20135;-81
2022/10/29 05:29:21;;;;;;;41.25;9.73;;;13.30;99.90;;;;;;5041085;28;20127;-82
2022/10/29 05:31:47;;;;;;;47.50;8.27;;;13.30;99.90;;;;;;5045684;28;20131;-80
2022/10/29 05:34:12;;;;;;;49.80;9.60;;;13.40;99.90;;;;;;5042023;28;20897;-81
2022/10/29 05:36:38;;;;;;;67.53;11.35;;;13.40;99.90;;;;;;5041898;28;20809;-81
2022/10/29 05:39:03;;;;;;;50.55;9.80;;;13.40;99.90;;;;;;5046921;28;20044;-80
2022/10/29 05:41:29;;;;;;;53.55;9.45;;;13.40;99.90;;;;;;5056484;28;20048;-79
2022/10/29 05:43:55;;;;;;;56.63;8.43;;;13.40;99.90;;;;;;5049063;28;20439;-83
2022/10/29 05:46:20;;;;;;;35.47;7.57;;;13.40;99.90;;;;;;5044809;28;20811;-80
2022/10/29 05:48:46;;;;;;;41.00;9.48;;;13.40;99.90;;;;;;5049326;28;20044;-80
2022/10/29 05:51:12;;;;;;;82.30;11.63;;;13.40;99.90;;;;;;5038286;28;20206;-78
2022/10/29 05:53:37;;;;;;;28.30;6.47;;;13.40;99.90;;;;;;5052016;28;20057;-81
2022/10/29 05:56:03;;;;;;;53.58;10.50;;;13.40;99.90;;;;;;5045315;28;20063;-81
2022/10/29 05:58:29;;;;;;;53.17;11.38;;;13.40;99.90;;;;;;5057646;28;20087;-79
2022/10/29 06:00:55;;;;;;;74.78;11.98;;;13.40;99.90;;;;;;5045627;28;20825;-81
2022/10/29 06:03:21;;;;;;;25.48;6.97;;;13.40;99.90;;;;;;5046591;28;20130;-80
2022/10/29 06:05:48;;;;;;;50.80;9.43;;;13.40;99.90;;;;;;5045491;28;20699;-80
2022/10/29 06:08:15;;;;;;;72.82;11.07;;;13.40;99.90;;;;;;5041501;28;20033;-80
2022/10/29 06:10:40;;;;;;;64.50;12.05;;;13.50;99.90;;;;;;5046173;28;20856;-82
2022/10/29 06:13:14;;;;;;;27.90;9.02;;;13.50;99.90;;;;;;5048829;28;20059;-81
2022/10/29 06:15:40;;;;;;;51.72;11.57;;;13.50;99.90;;;;;;5050365;28;20044;-81
2022/10/29 06:18:06;;;;;;;22.10;10.07;;;13.50;99.90;;;;;;5050393;28;20876;-81
2022/10/29 06:20:32;;;;;;;22.95;7.32;;;13.50;99.90;;;;;;5062106;28;20077;-79
2022/10/29 06:22:58;;;;;;;38.28;10.45;;;13.50;99.90;;;;;;5051589;28;20040;-81
2022/10/29 06:25:25;;;;;;;34.95;9.88;;;13.60;99.90;;;;;;5044471;28;20489;-81
2022/10/29 06:28:03;;;;;;;41.80;12.23;;;13.60;99.90;;;;;;5052773;28;20110;-78
2022/10/29 06:30:30;;;;;;;26.50;7.97;;;13.60;99.90;;;;;;5046172;28;20204;-80
2022/10/29 06:32:55;;;;;;;16.13;6.97;;;13.60;99.90;;;;;;5048764;28;20511;-81
2022/10/29 06:35:21;;;;;;;24.83;9.60;;;13.60;99.90;;;;;;5052121;28;20052;-80
2022/10/29 06:37:48;;;;;;;30.25;8.68;;;13.70;99.90;;;;;;5044169;28;20492;-80
2022/10/29 06:40:14;;;;;;;35.92;10.13;;;13.70;99.90;;;;;;5069351;28;20032;-78
2022/10/29 06:42:39;;;;;;;30.48;10.20;;;13.70;99.90;;;;;;5056446;28;20754;-79
2022/10/29 06:45:05;;;;;;;19.88;8.65;;;13.70;99.90;;;;;;5046142;28;20924;-81
2022/10/29 06:47:38;;;;;;;40.75;11.07;;;13.70;99.90;;;;;;5045631;28;20044;-81
2022/10/29 06:50:05;;;;;;;;;;;13.70;99.90;;;;;;5049085;28;20567;-81
2022/10/29 06:52:30;;;;;;;36.30;10.63;;;13.70;99.90;;;;;;5042721;28;20059;-81
2022/10/29 06:54:56;;;;;;;40.95;11.95;;;13.70;99.90;;;;;;5054069;28;20083;-81
2022/10/29 06:57:23;;;;;;;18.58;7.85;;;13.70;99.90;;;;;;5048047;28;20063;-81
2022/10/29 06:59:49;;;;;;;20.95;9.13;;;13.70;99.90;;;;;;5045372;28;20068;-80
2022/10/29 07:02:17;;;;;;;23.10;9.50;;;13.80;99.90;;;;;;5048379;28;20359;-82
2022/10/29 07:04:43;;;;;;;49.97;13.20;;;13.80;99.90;;;;;;5045836;28;20048;-81
2022/10/29 07:07:09;;;;;;;28.40;9.30;;;13.80;99.90;;;;;;5048934;28;20047;-79
2022/10/29 07:09:34;;;;;;;41.42;11.23;;;13.90;99.90;;;;;;5045625;28;20056;-81
2022/10/29 07:12:00;;;;;;;19.80;10.80;;;13.90;99.90;;;;;;5044646;28;20484;-78
2022/10/29 07:14:26;;;;;;;34.00;10.88;;;13.80;99.90;;;;;;5046392;28;20040;-81
2022/10/29 07:16:52;;;;;;;45.42;13.25;;;13.90;99.90;;;;;;5042164;28;20571;-82
2022/10/29 07:19:17;;;;;;;23.35;8.90;;;14.00;99.90;;;;;;5038643;28;20048;-82
2022/10/29 07:21:43;;;;;;;35.42;10.95;;;14.10;99.90;;;;;;5040819;28;20045;-84
2022/10/29 07:24:09;;;;;;;36.17;11.18;;;14.10;99.90;;;;;;5045285;28;20051;-84
2022/10/29 07:26:35;;;;;;;21.00;9.68;;;14.10;99.90;;;;;;5049725;28;20847;-83
2022/10/29 07:29:01;;;;;;;25.27;11.00;;;14.10;99.90;;;;;;5043824;28;20068;-79
2022/10/29 07:31:29;;;;;;;16.45;9.90;;;14.10;99.90;;;;;;5036721;28;20078;-82
2022/10/29 07:33:56;;;;;;;29.15;13.32;;;14.10;99.90;;;;;;5052098;28;20141;-86
2022/10/29 07:36:22;;;;;;;30.58;12.40;;;14.10;99.90;;;;;;5041038;28;20845;-82
2022/10/29 07:38:48;;;;;;;25.13;13.63;;;14.10;99.90;;;;;;5046964;28;20101;-81
2022/10/29 07:41:14;;;;;;;39.85;14.68;;;14.10;99.90;;;;;;5053658;28;20048;-83
2022/10/29 07:43:39;;;;;;;36.20;13.43;;;14.10;99.90;;;;;;5067001;28;20094;-81
2022/10/29 07:46:06;;;;;;;31.15;13.55;;;14.20;99.90;;;;;;5050694;28;20148;-84
2022/10/29 07:48:31;;;;;;;33.00;13.45;;;14.10;99.90;;;;;;5040780;28;20798;-80
2022/10/29 07:50:59;;;;;;;37.47;16.38;;;14.20;99.90;;;;;;5041197;28;20057;-82
2022/10/29 07:53:24;;;;;;;23.65;13.45;;;14.20;99.90;;;;;;5039834;28;20792;-82
2022/10/29 07:55:54;;;;;;;32.55;15.63;;;14.20;99.90;;;;;;5052982;28;20051;-83
2022/10/29 07:58:21;;;;;;;27.35;14.23;;;14.30;99.90;;;;;;5051565;28;20061;-82
2022/10/29 08:00:46;;;;;;;38.15;17.13;;;14.20;99.90;;;;;;5043261;28;20778;-81
2022/10/29 08:03:12;;;;;;;30.10;16.25;;;14.20;99.90;;;;;;5043087;28;20092;-82
2022/10/29 08:05:39;;;;;;;25.45;15.27;;;14.20;99.90;;;;;;5043337;28;20048;-82
2022/10/29 08:08:05;;;;;;;27.48;13.93;;;14.20;99.90;;;;;;5042652;28;20049;-82
2022/10/29 08:10:33;;;;;;;31.23;16.02;;;14.20;99.90;;;;;;5044360;28;20055;-82
2022/10/29 08:13:00;;;;;;;27.40;14.70;;;14.20;99.90;;;;;;5061036;28;20863;-83
2022/10/29 08:15:27;;;;;;;30.73;16.20;;;14.20;99.90;;;;;;5058296;28;20060;-83
2022/10/29 08:17:53;;;;;;;31.10;16.15;;;14.20;99.90;;;;;;5045455;28;20075;-83
2022/10/29 08:20:20;;;;;;;22.50;15.00;;;14.20;99.90;;;;;;5049030;28;20759;-84
2022/10/29 08:22:46;;;;;;;31.23;18.10;;;14.30;99.90;;;;;;5049892;28;20049;-82
2022/10/29 08:25:13;;;;;;;28.35;14.77;;;14.40;99.90;;;;;;5042589;28;20049;-82
2022/10/29 08:27:39;;;;;;;24.95;14.98;;;14.50;99.90;;;;;;5052547;28;20045;-82
2022/10/29 08:30:10;;;;;;;37.00;15.77;;;14.60;99.90;;;;;;5048110;28;20056;-83
2022/10/29 08:32:35;;;;;;;33.95;16.13;;;14.60;99.90;;;;;;5056243;28;20549;-84
2022/10/29 08:35:02;;;;;;;36.65;16.08;;;14.70;99.90;;;;;;5038571;28;20056;-83
2022/10/29 08:37:28;;;;;;;21.65;13.13;;;14.70;99.90;;;;;;5054304;28;20044;-83
2022/10/29 08:39:54;;;;;;;23.13;13.20;;;14.60;99.90;;;;;;5050862;28;20452;-83
2022/10/29 08:42:57;;;;;;;27.45;16.92;;;14.70;99.90;;;;;;5054952;28;20578;-83
2022/10/29 08:45:26;;;;;;;29.13;15.82;;;14.70;99.90;;;;;;5040327;28;20068;-82
2022/10/29 08:48:09;;;;;;;22.35;14.55;;;14.70;99.90;;;;;;5054460;28;20045;-80
2022/10/29 08:50:41;;;;;;;;;;;14.70;99.90;;;;;;5043107;28;20127;-84
2022/10/29 08:53:20;;;;;;;27.90;14.80;;;14.70;99.90;;;;;;5049340;28;20001;-81
2022/10/29 08:55:46;;;;;;;27.25;15.65;;;14.70;99.90;;;;;;5051219;28;20870;-83
2022/10/29 08:58:46;;;;;;;23.52;13.85;;;14.70;99.90;;;;;;5042764;28;20049;-80
2022/10/29 09:01:13;;;;;;;30.30;15.63;;;14.70;99.90;;;;;;5025913;28;20060;-81
2022/10/29 09:03:39;;;;;;;21.58;12.82;;;14.70;99.90;;;;;;5038334;28;20083;-82
2022/10/29 09:06:13;;;;;;;26.73;14.52;;;14.80;99.90;;;;;;5038942;28;20501;-83
2022/10/29 09:08:53;;;;;;;21.35;12.70;;;14.80;99.90;;;;;;5039956;28;20056;-84
2022/10/29 09:11:19;;;;;;;19.73;13.23;;;14.90;99.90;;;;;;5058243;28;20845;-84
2022/10/29 09:14:09;;;;;;;19.27;13.27;;;14.90;99.90;;;;;;5052093;28;20052;-82
2022/10/29 09:16:41;;;;;;;25.50;14.85;;;15.00;99.90;;;;;;5030846;28;20501;-85
2022/10/29 09:19:25;;;;;;;21.48;13.32;;;15.10;99.90;;;;;;5045912;28;20049;-82
2022/10/29 09:22:15;;;;;;;18.42;11.63;;;15.00;99.90;;;;;;5049311;28;20055;-85
2022/10/29 09:24:56;;;;;;;18.08;12.13;;;15.10;99.90;;;;;;5042748;28;20115;-84
2022/10/29 09:27:42;;;;;;;27.23;14.10;;;15.10;99.90;;;;;;5039218;28;20407;-80
2022/10/29 09:30:15;;;;;;;23.85;13.38;;;15.20;99.90;;;;;;5037822;28;20566;-85
2022/10/29 09:33:01;;;;;;;21.58;11.75;;;15.20;99.90;;;;;;5048951;28;20056;-83
2022/10/29 09:35:40;;;;;;;18.73;12.38;;;15.30;99.90;;;;;;5039012;28;20156;-84
2022/10/29 09:38:30;;;;;;;18.85;12.18;;;15.40;99.90;;;;;;5049351;28;20053;-83
2022/10/29 09:40:58;;;;;;;20.52;11.80;;;15.40;99.90;;;;;;5034344;28;20052;-83
2022/10/29 09:43:42;;;;;;;23.70;14.88;;;15.40;99.90;;;;;;5052297;28;20113;-84
2022/10/29 09:46:51;;;;;;;19.33;12.82;;;15.40;99.90;;;;;;5044005;28;20127;-83
2022/10/29 09:49:47;;;;;;;20.38;12.50;;;15.40;99.90;;;;;;4992473;28;20050;-83
2022/10/29 09:52:19;;;;;;;24.63;13.15;;;15.40;99.90;;;;;;4987248;28;20425;-84
2022/10/29 09:54:49;;;;;;;20.52;12.82;;;15.40;99.90;;;;;;5028753;28;20057;-81
2022/10/29 09:57:23;;;;;;;20.13;11.73;;;15.30;99.90;;;;;;5043855;28;20593;-83
2022/10/29 09:59:55;;;;;;;18.40;13.43;;;15.30;99.90;;;;;;5042368;28;20123;-85
2022/10/29 10:02:36;;;;;;;24.23;14.57;;;15.30;99.90;;;;;;5053178;28;20048;-83
2022/10/29 10:05:13;;;;;;;18.80;11.77;;;15.50;99.90;;;;;;5052679;28;20119;-83
2022/10/29 10:07:39;;;;;;;20.67;12.57;;;15.40;99.90;;;;;;5049514;28;20044;-85
2022/10/29 10:10:20;;;;;;;20.73;13.43;;;15.50;99.90;;;;;;5051640;28;20566;-78
2022/10/29 10:12:48;;;;;;;21.38;13.95;;;15.60;99.90;;;;;;5042926;28;20689;-82
2022/10/29 10:15:32;;;;;;;28.27;13.90;;;15.80;99.90;;;;;;5039209;28;20057;-83
2022/10/29 10:18:06;;;;;;;20.60;13.57;;;15.90;99.90;;;;;;5037907;28;20040;-84
2022/10/29 10:20:34;;;;;;;;;;;16.10;99.90;;;;;;5040602;28;20056;-82
2022/10/29 10:23:00;;;;;;;22.05;12.75;;;16.10;99.90;;;;;;5044855;28;19924;-82
2022/10/29 10:25:33;;;;;;;22.98;12.98;;;16.10;99.90;;;;;;5049085;28;20056;-83
2022/10/29 10:28:22;;;;;;;18.43;12.20;;;16.20;99.90;;;;;;5050548;28;20128;-84
2022/10/29 10:31:03;;;;;;;21.15;12.70;;;16.30;99.90;;;;;;5048944;28;20048;-82
2022/10/29 10:33:31;;;;;;;20.13;11.90;;;16.40;99.90;;;;;;5047080;28;20055;-85
2022/10/29 10:36:05;;;;;;;19.25;12.43;;;16.40;99.90;;;;;;5051075;28;20053;-83
2022/10/29 10:38:48;;;;;;;25.27;12.13;;;16.40;99.90;;;;;;5053721;28;20071;-82
2022/10/29 10:41:20;;;;;;;20.88;10.70;;;16.50;99.90;;;;;;5045428;28;20051;-83
2022/10/29 10:43:46;;;;;;;18.05;12.45;;;16.60;99.90;;;;;;5046146;28;20409;-83
2022/10/29 10:46:21;;;;;;;21.23;12.02;;;16.70;99.90;;;;;;5044163;28;20302;-81
2022/10/29 10:49:18;;;;;;;19.48;12.18;;;16.80;99.90;;;;;;5036362;28;20452;-84
2022/10/29 10:51:49;;;;;;;19.73;11.40;;;16.80;99.90;;;;;;5037276;28;20052;-84
2022/10/29 10:54:40;;;;;;;19.73;11.35;;;17.00;99.90;;;;;;5041818;28;20057;-82
2022/10/29 10:57:09;;;;;;;18.63;12.38;;;17.00;99.90;;;;;;5038001;28;20664;-82
2022/10/29 10:59:50;;;;;;;20.13;11.95;;;17.10;99.90;;;;;;5044553;28;20652;-82
2022/10/29 11:02:35;;;;;;;16.58;12.00;;;17.10;99.90;;;;;;5051368;28;20052;-83
2022/10/29 11:05:19;;;;;;;23.65;11.70;;;17.20;99.90;;;;;;5050226;28;20053;-82
2022/10/29 11:08:02;;;;;;;17.70;12.07;;;17.40;99.90;;;;;;5054617;28;20048;-85
2022/10/29 11:10:54;;;;;;;;;;;17.60;99.90;;;;;;5055692;28;20927;-84
2022/10/29 11:13:26;;;;;;;24.40;11.82;;;17.70;99.90;;;;;;5046510;28;20464;-86
2022/10/29 11:16:18;;;;;;;15.02;10.18;;;17.90;99.90;;;;;;5042675;28;20072;-82
2022/10/29 11:18:47;;;;;;;19.05;10.27;;;18.10;99.90;;;;;;5049298;28;20120;-85
2022/10/29 11:21:19;;;;;;;15.15;8.85;;;18.20;99.90;;;;;;5040330;28;20056;-83
2022/10/29 11:23:53;;;;;;;17.60;10.93;;;18.30;99.90;;;;;;5047135;28;20170;-86
2022/10/29 11:26:33;;;;;;;15.30;9.27;;;18.50;99.90;;;;;;5042049;28;20040;-83
2022/10/29 11:29:16;;;;;;;12.80;8.43;;;18.50;99.90;;;;;;5045285;28;20045;-83
2022/10/29 11:32:07;;;;;;;15.10;9.38;;;18.60;99.90;;;;;;5047360;28;20041;-81
2022/10/29 11:35:08;;;;;;;16.60;9.23;;;18.60;99.90;;;;;;5047595;28;20250;-86
2022/10/29 11:37:43;;;;;;;14.20;10.10;;;18.60;99.90;;;;;;5048110;28;20063;-83
2022/10/29 11:40:36;;;;;;;13.57;8.57;;;18.70;99.90;;;;;;5041477;28;20059;-83
2022/10/29 11:43:02;;;;;;;13.05;8.73;;;18.70;99.90;;;;;;5040564;28;20087;-83
2022/10/29 11:46:00;;;;;;;12.32;6.80;;;18.80;99.90;;;;;;5043511;28;20160;-84
2022/10/29 11:49:02;;;;;;;11.88;7.85;;;19.00;99.90;;;;;;5040317;28;20266;-85
2022/10/29 11:51:58;;;;;;;15.73;8.25;;;19.00;99.90;;;;;;5051439;28;20069;-87
2022/10/29 11:54:36;;;;;;;15.43;8.40;;;19.00;99.90;;;;;;5052296;28;20049;-82
2022/10/29 11:57:24;;;;;;;13.30;7.65;;;19.00;99.90;;;;;;5049324;28;20048;-84
2022/10/29 12:00:09;;;;;;;13.73;7.65;;;19.10;99.90;;;;;;5049130;28;20048;-85
2022/10/29 12:03:15;;;;;;;20.35;8.85;;;19.20;99.90;;;;;;5054017;28;20048;-84
2022/10/29 12:05:55;;;;;;;11.57;8.20;;;19.30;99.90;;;;;;5050618;28;20137;-83
2022/10/29 12:08:31;;;;;;;16.00;7.57;;;19.40;99.90;;;;;;5054558;28;20047;-84
2022/10/29 12:11:12;;;;;;;15.15;8.23;;;19.50;99.90;;;;;;5048400;28;20048;-84
2022/10/29 12:13:48;;;;;;;16.17;7.65;;;19.50;99.90;;;;;;5049971;28;20040;-86
2022/10/29 12:16:27;;;;;;;17.08;9.30;;;19.50;99.90;;;;;;5051277;28;20053;-84
2022/10/29 12:19:31;;;;;;;14.65;9.25;;;19.40;99.90;;;;;;5047989;28;20152;-85
2022/10/29 12:22:04;;;;;;;14.40;8.68;;;19.50;99.90;;;;;;5047009;28;20224;-86
2022/10/29 12:25:05;;;;;;;13.90;8.57;;;19.60;99.90;;;;;;5055361;28;20174;-84
2022/10/29 12:27:40;;;;;;;13.68;9.55;;;19.40;99.90;;;;;;5052859;28;20127;-85
2022/10/29 12:30:08;;;;;;;14.32;8.38;;;19.30;99.90;;;;;;5041767;28;20064;-83
2022/10/29 12:33:00;;;;;;;15.55;8.18;;;19.40;99.90;;;;;;5042413;28;20048;-82
2022/10/29 12:35:41;;;;;;;13.00;8.70;;;19.40;99.90;;;;;;5051348;28;20084;-83
2022/10/29 12:38:20;;;;;;;16.90;9.38;;;19.50;99.90;;;;;;5042789;28;20576;-84
2022/10/29 12:40:50;;;;;;;14.45;7.97;;;19.50;99.90;;;;;;5052408;28;20060;-85
2022/10/29 12:43:28;;;;;;;25.27;10.30;;;19.40;99.90;;;;;;5042810;28;20048;-85
2022/10/29 12:46:04;;;;;;;13.63;8.88;;;19.40;99.90;;;;;;5048854;28;20055;-83
2022/10/29 12:48:52;;;;;;;13.88;9.38;;;19.50;99.90;;;;;;5041849;28;20453;-74
2022/10/29 12:51:36;;;;;;;17.30;9.82;;;19.60;99.90;;;;;;5040358;28;20055;-83
2022/10/29 12:54:41;;;;;;;20.95;9.02;;;19.80;99.90;;;;;;5042646;28;20048;-82
2022/10/29 12:57:12;;;;;;;12.38;8.43;;;19.90;99.90;;;;;;4993396;28;20054;-83
2022/10/29 12:59:39;;;;;;;12.02;8.10;;;20.00;99.90;;;;;;4995431;28;20042;-83
2022/10/29 13:02:23;;;;;;;15.88;9.25;;;20.00;99.90;;;;;;5023611;28;20060;-82